sensor_id;sensor_type;location;lat;lon;timestamp;P1;durP1;ratioP1;P2;durP2;ratioP2
61569;SDS011;47462;59.172;17.196;2023-01-05T00:01:08;0.83;;;0.33;;
61569;SDS011;47462;59.172;17.196;2023-01-05T00:03:35;0.45;;;0.10;;
61569;SDS011;47462;59.172;17.196;2023-01-05T00:06:02;0.80;;;0.30;;
61569;SDS011;47462;59.172;17.196;2023-01-05T00:08:39;0.20;;;0.20;;
61569;SDS011;47462;59.172;17.196;2023-01-05T00:11:06;1.80;;;0.50;;
61569;SDS011;47462;59.172;17.196;2023-01-05T00:16:36;0.75;;;0.25;;
61569;SDS011;47462;59.172;17.196;2023-01-05T00:19:20;0.20;;;0.20;;
61569;SDS011;47462;59.172;17.196;2023-01-05T00:25:11;0.30;;;0.30;;
61569;SDS011;47462;59.172;17.196;2023-01-05T00:27:42;1.45;;;0.52;;
61569;SDS011;47462;59.172;17.196;2023-01-05T00:30:10;0.75;;;0.45;;
61569;SDS011;47462;59.172;17.196;2023-01-05T00:32:37;1.10;;;0.40;;
61569;SDS011;47462;59.172;17.196;2023-01-05T00:35:04;1.17;;;0.30;;
61569;SDS011;47462;59.172;17.196;2023-01-05T00:37:30;0.40;;;0.40;;
61569;SDS011;47462;59.172;17.196;2023-01-05T00:39:57;1.85;;;0.30;;
61569;SDS011;47462;59.172;17.196;2023-01-05T00:42:22;1.43;;;0.50;;
61569;SDS011;47462;59.172;17.196;2023-01-05T00:44:48;2.22;;;0.50;;
61569;SDS011;47462;59.172;17.196;2023-01-05T00:47:14;1.30;;;0.30;;
61569;SDS011;47462;59.172;17.196;2023-01-05T00:52:05;1.35;;;0.50;;
61569;SDS011;47462;59.172;17.196;2023-01-05T00:54:31;1.23;;;0.50;;
61569;SDS011;47462;59.172;17.196;2023-01-05T00:56:56;0.67;;;0.40;;
61569;SDS011;47462;59.172;17.196;2023-01-05T00:59:22;2.35;;;0.47;;
61569;SDS011;47462;59.172;17.196;2023-01-05T01:01:48;1.20;;;0.50;;
61569;SDS011;47462;59.172;17.196;2023-01-05T01:04:15;0.63;;;0.40;;
61569;SDS011;47462;59.172;17.196;2023-01-05T01:06:41;1.27;;;0.52;;
61569;SDS011;47462;59.172;17.196;2023-01-05T01:09:06;1.67;;;0.50;;
61569;SDS011;47462;59.172;17.196;2023-01-05T01:11:32;0.45;;;0.43;;
61569;SDS011;47462;59.172;17.196;2023-01-05T01:13:58;1.98;;;0.50;;
61569;SDS011;47462;59.172;17.196;2023-01-05T01:16:23;0.83;;;0.40;;
61569;SDS011;47462;59.172;17.196;2023-01-05T01:18:49;1.07;;;0.50;;
61569;SDS011;47462;59.172;17.196;2023-01-05T01:21:14;2.23;;;0.70;;
61569;SDS011;47462;59.172;17.196;2023-01-05T01:23:39;1.43;;;0.30;;
61569;SDS011;47462;59.172;17.196;2023-01-05T01:26:07;0.93;;;0.52;;
61569;SDS011;47462;59.172;17.196;2023-01-05T01:28:34;1.50;;;0.40;;
61569;SDS011;47462;59.172;17.196;2023-01-05T01:31:00;2.55;;;0.82;;
61569;SDS011;47462;59.172;17.196;2023-01-05T01:33:26;2.85;;;0.70;;
61569;SDS011;47462;59.172;17.196;2023-01-05T01:35:52;0.50;;;0.43;;
61569;SDS011;47462;59.172;17.196;2023-01-05T01:38:18;3.27;;;0.77;;
61569;SDS011;47462;59.172;17.196;2023-01-05T01:40:44;1.60;;;0.53;;
61569;SDS011;47462;59.172;17.196;2023-01-05T01:43:14;3.13;;;0.63;;
61569;SDS011;47462;59.172;17.196;2023-01-05T01:45:44;2.30;;;0.80;;
61569;SDS011;47462;59.172;17.196;2023-01-05T01:48:11;3.28;;;0.90;;
61569;SDS011;47462;59.172;17.196;2023-01-05T01:50:45;1.15;;;0.50;;
61569;SDS011;47462;59.172;17.196;2023-01-05T01:53:16;4.97;;;0.70;;
61569;SDS011;47462;59.172;17.196;2023-01-05T01:55:47;3.17;;;0.65;;
61569;SDS011;47462;59.172;17.196;2023-01-05T01:58:15;3.03;;;0.88;;
61569;SDS011;47462;59.172;17.196;2023-01-05T02:00:43;1.15;;;1.00;;
61569;SDS011;47462;59.172;17.196;2023-01-05T02:03:10;2.83;;;0.68;;
61569;SDS011;47462;59.172;17.196;2023-01-05T02:05:36;3.95;;;0.82;;
61569;SDS011;47462;59.172;17.196;2023-01-05T02:08:02;1.98;;;0.90;;
61569;SDS011;47462;59.172;17.196;2023-01-05T02:13:37;2.63;;;0.70;;
61569;SDS011;47462;59.172;17.196;2023-01-05T02:21:46;3.42;;;0.73;;
61569;SDS011;47462;59.172;17.196;2023-01-05T02:24:23;1.30;;;0.73;;
61569;SDS011;47462;59.172;17.196;2023-01-05T02:39:17;2.13;;;0.80;;
61569;SDS011;47462;59.172;17.196;2023-01-05T02:41:49;2.38;;;0.80;;
61569;SDS011;47462;59.172;17.196;2023-01-05T02:44:19;0.73;;;0.60;;
61569;SDS011;47462;59.172;17.196;2023-01-05T02:46:45;0.95;;;0.73;;
61569;SDS011;47462;59.172;17.196;2023-01-05T02:49:12;2.78;;;0.80;;
61569;SDS011;47462;59.172;17.196;2023-01-05T02:51:42;0.82;;;0.75;;
61569;SDS011;47462;59.172;17.196;2023-01-05T02:54:23;5.75;;;0.95;;
61569;SDS011;47462;59.172;17.196;2023-01-05T02:56:59;2.85;;;1.00;;
61569;SDS011;47462;59.172;17.196;2023-01-05T02:59:36;1.48;;;0.88;;
61569;SDS011;47462;59.172;17.196;2023-01-05T03:02:28;2.00;;;0.82;;
61569;SDS011;47462;59.172;17.196;2023-01-05T03:04:57;1.60;;;0.98;;
61569;SDS011;47462;59.172;17.196;2023-01-05T03:07:29;4.07;;;1.00;;
61569;SDS011;47462;59.172;17.196;2023-01-05T03:09:58;6.35;;;1.02;;
61569;SDS011;47462;59.172;17.196;2023-01-05T03:12:44;2.15;;;1.05;;
61569;SDS011;47462;59.172;17.196;2023-01-05T03:15:29;2.67;;;1.05;;
61569;SDS011;47462;59.172;17.196;2023-01-05T03:18:03;2.65;;;1.15;;
61569;SDS011;47462;59.172;17.196;2023-01-05T03:20:31;1.95;;;0.90;;
61569;SDS011;47462;59.172;17.196;2023-01-05T03:22:59;5.05;;;1.20;;
61569;SDS011;47462;59.172;17.196;2023-01-05T03:25:45;1.90;;;0.90;;
61569;SDS011;47462;59.172;17.196;2023-01-05T03:28:35;3.17;;;1.42;;
61569;SDS011;47462;59.172;17.196;2023-01-05T03:31:27;3.58;;;0.98;;
61569;SDS011;47462;59.172;17.196;2023-01-05T03:37:15;5.13;;;1.20;;
61569;SDS011;47462;59.172;17.196;2023-01-05T03:39:46;3.20;;;0.70;;
61569;SDS011;47462;59.172;17.196;2023-01-05T03:42:11;1.90;;;1.00;;
61569;SDS011;47462;59.172;17.196;2023-01-05T03:44:40;1.88;;;0.65;;
61569;SDS011;47462;59.172;17.196;2023-01-05T03:47:08;3.00;;;1.00;;
61569;SDS011;47462;59.172;17.196;2023-01-05T03:49:34;2.38;;;1.05;;
61569;SDS011;47462;59.172;17.196;2023-01-05T03:52:01;2.13;;;0.93;;
61569;SDS011;47462;59.172;17.196;2023-01-05T03:54:27;1.52;;;0.80;;
61569;SDS011;47462;59.172;17.196;2023-01-05T03:56:52;1.90;;;0.90;;
61569;SDS011;47462;59.172;17.196;2023-01-05T03:59:17;2.53;;;1.00;;
61569;SDS011;47462;59.172;17.196;2023-01-05T04:01:43;4.93;;;1.00;;
61569;SDS011;47462;59.172;17.196;2023-01-05T04:04:08;2.33;;;1.38;;
61569;SDS011;47462;59.172;17.196;2023-01-05T04:06:34;2.60;;;0.80;;
61569;SDS011;47462;59.172;17.196;2023-01-05T04:08:59;0.73;;;0.57;;
61569;SDS011;47462;59.172;17.196;2023-01-05T04:11:24;2.27;;;0.80;;
61569;SDS011;47462;59.172;17.196;2023-01-05T04:13:50;3.07;;;1.23;;
61569;SDS011;47462;59.172;17.196;2023-01-05T04:16:15;1.53;;;0.83;;
61569;SDS011;47462;59.172;17.196;2023-01-05T04:18:41;2.60;;;1.05;;
61569;SDS011;47462;59.172;17.196;2023-01-05T04:21:07;2.47;;;0.95;;
61569;SDS011;47462;59.172;17.196;2023-01-05T04:23:32;2.58;;;0.90;;
61569;SDS011;47462;59.172;17.196;2023-01-05T04:25:59;2.70;;;1.00;;
61569;SDS011;47462;59.172;17.196;2023-01-05T04:28:25;1.67;;;1.02;;
61569;SDS011;47462;59.172;17.196;2023-01-05T04:30:51;2.60;;;0.85;;
61569;SDS011;47462;59.172;17.196;2023-01-05T04:33:18;3.03;;;1.55;;
61569;SDS011;47462;59.172;17.196;2023-01-05T04:35:45;4.45;;;0.80;;
61569;SDS011;47462;59.172;17.196;2023-01-05T04:38:11;3.17;;;1.00;;
61569;SDS011;47462;59.172;17.196;2023-01-05T04:40:36;3.65;;;1.10;;
61569;SDS011;47462;59.172;17.196;2023-01-05T04:43:02;2.20;;;1.00;;
61569;SDS011;47462;59.172;17.196;2023-01-05T04:45:28;2.15;;;0.90;;
61569;SDS011;47462;59.172;17.196;2023-01-05T04:47:53;1.35;;;1.20;;
61569;SDS011;47462;59.172;17.196;2023-01-05T04:50:18;3.77;;;1.00;;
61569;SDS011;47462;59.172;17.196;2023-01-05T04:52:44;6.57;;;1.23;;
61569;SDS011;47462;59.172;17.196;2023-01-05T04:55:09;4.13;;;1.30;;
61569;SDS011;47462;59.172;17.196;2023-01-05T04:57:35;1.17;;;0.98;;
61569;SDS011;47462;59.172;17.196;2023-01-05T05:00:01;2.90;;;1.20;;
61569;SDS011;47462;59.172;17.196;2023-01-05T05:02:27;5.93;;;1.23;;
61569;SDS011;47462;59.172;17.196;2023-01-05T05:04:53;2.07;;;1.23;;
61569;SDS011;47462;59.172;17.196;2023-01-05T05:07:18;1.47;;;1.17;;
61569;SDS011;47462;59.172;17.196;2023-01-05T05:09:44;1.67;;;1.23;;
61569;SDS011;47462;59.172;17.196;2023-01-05T05:12:11;2.15;;;1.20;;
61569;SDS011;47462;59.172;17.196;2023-01-05T05:14:37;2.92;;;1.50;;
61569;SDS011;47462;59.172;17.196;2023-01-05T05:17:03;3.15;;;1.77;;
61569;SDS011;47462;59.172;17.196;2023-01-05T05:19:29;5.20;;;1.77;;
61569;SDS011;47462;59.172;17.196;2023-01-05T05:21:55;2.58;;;1.15;;
61569;SDS011;47462;59.172;17.196;2023-01-05T05:24:20;4.20;;;1.43;;
61569;SDS011;47462;59.172;17.196;2023-01-05T05:26:45;4.37;;;1.57;;
61569;SDS011;47462;59.172;17.196;2023-01-05T05:29:11;4.27;;;1.93;;
61569;SDS011;47462;59.172;17.196;2023-01-05T05:31:36;4.27;;;1.70;;
61569;SDS011;47462;59.172;17.196;2023-01-05T05:34:02;3.35;;;1.95;;
61569;SDS011;47462;59.172;17.196;2023-01-05T05:36:27;9.00;;;1.43;;
61569;SDS011;47462;59.172;17.196;2023-01-05T05:38:52;3.63;;;1.30;;
61569;SDS011;47462;59.172;17.196;2023-01-05T05:41:18;2.00;;;1.27;;
61569;SDS011;47462;59.172;17.196;2023-01-05T05:43:43;3.27;;;2.70;;
61569;SDS011;47462;59.172;17.196;2023-01-05T05:46:09;2.97;;;1.47;;
61569;SDS011;47462;59.172;17.196;2023-01-05T05:48:34;4.03;;;1.60;;
61569;SDS011;47462;59.172;17.196;2023-01-05T05:50:59;6.93;;;1.70;;
61569;SDS011;47462;59.172;17.196;2023-01-05T05:53:25;8.83;;;1.73;;
61569;SDS011;47462;59.172;17.196;2023-01-05T05:55:50;2.17;;;1.40;;
61569;SDS011;47462;59.172;17.196;2023-01-05T05:58:16;5.80;;;2.00;;
61569;SDS011;47462;59.172;17.196;2023-01-05T06:00:42;4.22;;;1.35;;
61569;SDS011;47462;59.172;17.196;2023-01-05T06:03:07;3.63;;;1.17;;
61569;SDS011;47462;59.172;17.196;2023-01-05T06:05:33;3.10;;;1.30;;
61569;SDS011;47462;59.172;17.196;2023-01-05T06:07:58;3.58;;;1.50;;
61569;SDS011;47462;59.172;17.196;2023-01-05T06:10:24;4.20;;;1.40;;
61569;SDS011;47462;59.172;17.196;2023-01-05T06:12:51;3.45;;;1.85;;
61569;SDS011;47462;59.172;17.196;2023-01-05T06:15:18;4.18;;;1.58;;
61569;SDS011;47462;59.172;17.196;2023-01-05T06:17:44;8.88;;;2.58;;
61569;SDS011;47462;59.172;17.196;2023-01-05T06:20:10;5.22;;;1.40;;
61569;SDS011;47462;59.172;17.196;2023-01-05T06:22:36;3.72;;;1.33;;
61569;SDS011;47462;59.172;17.196;2023-01-05T06:25:01;5.43;;;1.40;;
61569;SDS011;47462;59.172;17.196;2023-01-05T06:27:27;10.43;;;1.85;;
61569;SDS011;47462;59.172;17.196;2023-01-05T06:29:52;4.93;;;1.67;;
61569;SDS011;47462;59.172;17.196;2023-01-05T06:32:18;3.53;;;1.43;;
61569;SDS011;47462;59.172;17.196;2023-01-05T06:34:43;6.57;;;1.60;;
61569;SDS011;47462;59.172;17.196;2023-01-05T06:37:08;3.37;;;2.10;;
61569;SDS011;47462;59.172;17.196;2023-01-05T06:39:34;6.07;;;1.57;;
61569;SDS011;47462;59.172;17.196;2023-01-05T06:41:59;5.23;;;1.60;;
61569;SDS011;47462;59.172;17.196;2023-01-05T06:44:24;4.07;;;1.40;;
61569;SDS011;47462;59.172;17.196;2023-01-05T06:46:50;3.40;;;1.67;;
61569;SDS011;47462;59.172;17.196;2023-01-05T06:49:15;4.47;;;1.43;;
61569;SDS011;47462;59.172;17.196;2023-01-05T06:51:41;6.17;;;1.53;;
61569;SDS011;47462;59.172;17.196;2023-01-05T06:54:06;6.93;;;2.00;;
61569;SDS011;47462;59.172;17.196;2023-01-05T06:56:32;8.18;;;2.00;;
61569;SDS011;47462;59.172;17.196;2023-01-05T06:58:57;4.57;;;1.60;;
61569;SDS011;47462;59.172;17.196;2023-01-05T07:01:23;5.20;;;2.00;;
61569;SDS011;47462;59.172;17.196;2023-01-05T07:03:48;6.53;;;2.30;;
61569;SDS011;47462;59.172;17.196;2023-01-05T07:06:14;9.83;;;2.67;;
61569;SDS011;47462;59.172;17.196;2023-01-05T07:08:39;5.78;;;3.17;;
61569;SDS011;47462;59.172;17.196;2023-01-05T07:11:05;6.17;;;2.70;;
61569;SDS011;47462;59.172;17.196;2023-01-05T07:13:30;6.07;;;2.75;;
61569;SDS011;47462;59.172;17.196;2023-01-05T07:15:58;6.75;;;2.97;;
61569;SDS011;47462;59.172;17.196;2023-01-05T07:18:23;6.60;;;3.30;;
61569;SDS011;47462;59.172;17.196;2023-01-05T07:20:49;4.93;;;2.50;;
61569;SDS011;47462;59.172;17.196;2023-01-05T07:23:15;11.40;;;3.13;;
61569;SDS011;47462;59.172;17.196;2023-01-05T07:25:40;8.10;;;3.53;;
61569;SDS011;47462;59.172;17.196;2023-01-05T07:28:06;4.90;;;2.63;;
61569;SDS011;47462;59.172;17.196;2023-01-05T07:30:31;10.60;;;3.30;;
61569;SDS011;47462;59.172;17.196;2023-01-05T07:33:00;7.90;;;2.72;;
61569;SDS011;47462;59.172;17.196;2023-01-05T07:35:26;8.15;;;3.25;;
61569;SDS011;47462;59.172;17.196;2023-01-05T07:37:54;7.93;;;2.35;;
61569;SDS011;47462;59.172;17.196;2023-01-05T07:40:20;8.88;;;3.13;;
61569;SDS011;47462;59.172;17.196;2023-01-05T07:42:49;9.40;;;2.63;;
61569;SDS011;47462;59.172;17.196;2023-01-05T07:45:18;9.65;;;2.95;;
61569;SDS011;47462;59.172;17.196;2023-01-05T07:47:44;9.82;;;3.03;;
61569;SDS011;47462;59.172;17.196;2023-01-05T07:50:10;4.88;;;2.03;;
61569;SDS011;47462;59.172;17.196;2023-01-05T07:52:35;10.95;;;3.08;;
61569;SDS011;47462;59.172;17.196;2023-01-05T07:55:01;6.43;;;2.40;;
61569;SDS011;47462;59.172;17.196;2023-01-05T07:57:26;7.90;;;2.42;;
61569;SDS011;47462;59.172;17.196;2023-01-05T07:59:52;8.60;;;3.27;;
61569;SDS011;47462;59.172;17.196;2023-01-05T08:02:17;8.87;;;2.37;;
61569;SDS011;47462;59.172;17.196;2023-01-05T08:04:43;10.43;;;2.72;;
61569;SDS011;47462;59.172;17.196;2023-01-05T08:07:08;4.00;;;1.97;;
61569;SDS011;47462;59.172;17.196;2023-01-05T08:09:35;5.78;;;2.70;;
61569;SDS011;47462;59.172;17.196;2023-01-05T08:12:20;6.38;;;2.38;;
61569;SDS011;47462;59.172;17.196;2023-01-05T08:14:45;8.03;;;2.43;;
61569;SDS011;47462;59.172;17.196;2023-01-05T08:17:11;5.57;;;2.10;;
61569;SDS011;47462;59.172;17.196;2023-01-05T08:19:36;4.53;;;2.35;;
61569;SDS011;47462;59.172;17.196;2023-01-05T08:22:02;10.63;;;2.70;;
61569;SDS011;47462;59.172;17.196;2023-01-05T08:24:28;8.63;;;1.80;;
61569;SDS011;47462;59.172;17.196;2023-01-05T08:26:54;14.77;;;3.70;;
61569;SDS011;47462;59.172;17.196;2023-01-05T08:29:19;7.33;;;2.70;;
61569;SDS011;47462;59.172;17.196;2023-01-05T08:31:44;8.32;;;1.98;;
61569;SDS011;47462;59.172;17.196;2023-01-05T08:34:10;7.17;;;2.07;;
61569;SDS011;47462;59.172;17.196;2023-01-05T08:36:35;8.20;;;2.47;;
61569;SDS011;47462;59.172;17.196;2023-01-05T08:39:01;10.77;;;2.97;;
61569;SDS011;47462;59.172;17.196;2023-01-05T08:41:27;6.03;;;2.40;;
61569;SDS011;47462;59.172;17.196;2023-01-05T08:43:56;6.90;;;2.55;;
61569;SDS011;47462;59.172;17.196;2023-01-05T08:46:24;7.53;;;2.30;;
61569;SDS011;47462;59.172;17.196;2023-01-05T08:48:51;5.88;;;2.20;;
61569;SDS011;47462;59.172;17.196;2023-01-05T08:51:18;8.43;;;2.28;;
61569;SDS011;47462;59.172;17.196;2023-01-05T08:53:44;5.70;;;2.63;;
61569;SDS011;47462;59.172;17.196;2023-01-05T08:56:10;9.07;;;3.97;;
61569;SDS011;47462;59.172;17.196;2023-01-05T08:58:36;7.80;;;2.42;;
61569;SDS011;47462;59.172;17.196;2023-01-05T09:03:31;6.63;;;2.67;;
61569;SDS011;47462;59.172;17.196;2023-01-05T09:05:57;6.20;;;2.30;;
61569;SDS011;47462;59.172;17.196;2023-01-05T09:08:26;6.30;;;2.38;;
61569;SDS011;47462;59.172;17.196;2023-01-05T09:10:52;5.20;;;2.17;;
61569;SDS011;47462;59.172;17.196;2023-01-05T09:13:17;5.43;;;2.37;;
61569;SDS011;47462;59.172;17.196;2023-01-05T09:15:43;7.10;;;2.00;;
61569;SDS011;47462;59.172;17.196;2023-01-05T09:18:08;6.57;;;2.50;;
61569;SDS011;47462;59.172;17.196;2023-01-05T09:20:34;3.93;;;2.03;;
61569;SDS011;47462;59.172;17.196;2023-01-05T09:22:59;6.20;;;1.90;;
61569;SDS011;47462;59.172;17.196;2023-01-05T09:25:24;7.00;;;2.53;;
61569;SDS011;47462;59.172;17.196;2023-01-05T09:27:50;8.43;;;2.73;;
61569;SDS011;47462;59.172;17.196;2023-01-05T09:30:16;5.57;;;3.03;;
61569;SDS011;47462;59.172;17.196;2023-01-05T09:32:44;7.40;;;2.70;;
61569;SDS011;47462;59.172;17.196;2023-01-05T09:35:09;8.33;;;2.03;;
61569;SDS011;47462;59.172;17.196;2023-01-05T09:37:34;5.13;;;2.17;;
61569;SDS011;47462;59.172;17.196;2023-01-05T09:40:00;6.73;;;2.20;;
61569;SDS011;47462;59.172;17.196;2023-01-05T09:42:25;4.53;;;2.10;;
61569;SDS011;47462;59.172;17.196;2023-01-05T09:45:04;9.05;;;2.30;;
61569;SDS011;47462;59.172;17.196;2023-01-05T09:47:33;5.88;;;2.30;;
61569;SDS011;47462;59.172;17.196;2023-01-05T09:50:02;4.22;;;2.05;;
61569;SDS011;47462;59.172;17.196;2023-01-05T09:52:30;4.93;;;1.98;;
61569;SDS011;47462;59.172;17.196;2023-01-05T09:54:55;3.75;;;1.85;;
61569;SDS011;47462;59.172;17.196;2023-01-05T09:57:22;7.30;;;2.50;;
61569;SDS011;47462;59.172;17.196;2023-01-05T10:00:00;8.80;;;2.50;;
61569;SDS011;47462;59.172;17.196;2023-01-05T10:02:31;6.35;;;2.25;;
61569;SDS011;47462;59.172;17.196;2023-01-05T10:05:04;4.57;;;2.33;;
61569;SDS011;47462;59.172;17.196;2023-01-05T10:10:14;7.93;;;2.42;;
61569;SDS011;47462;59.172;17.196;2023-01-05T10:12:48;6.45;;;2.05;;
61569;SDS011;47462;59.172;17.196;2023-01-05T10:15:48;8.20;;;2.15;;
61569;SDS011;47462;59.172;17.196;2023-01-05T10:18:25;5.65;;;2.25;;
61569;SDS011;47462;59.172;17.196;2023-01-05T10:23:35;5.55;;;2.15;;
61569;SDS011;47462;59.172;17.196;2023-01-05T10:26:19;4.57;;;2.00;;
61569;SDS011;47462;59.172;17.196;2023-01-05T10:29:00;3.78;;;2.20;;
61569;SDS011;47462;59.172;17.196;2023-01-05T10:46:07;8.13;;;3.78;;
61569;SDS011;47462;59.172;17.196;2023-01-05T10:48:35;6.57;;;2.50;;
61569;SDS011;47462;59.172;17.196;2023-01-05T10:51:01;6.25;;;2.05;;
61569;SDS011;47462;59.172;17.196;2023-01-05T10:53:28;6.90;;;2.33;;
61569;SDS011;47462;59.172;17.196;2023-01-05T10:56:13;7.32;;;2.17;;
61569;SDS011;47462;59.172;17.196;2023-01-05T10:58:46;7.38;;;1.88;;
61569;SDS011;47462;59.172;17.196;2023-01-05T11:01:23;3.50;;;1.80;;
61569;SDS011;47462;59.172;17.196;2023-01-05T11:04:16;9.48;;;2.00;;
61569;SDS011;47462;59.172;17.196;2023-01-05T11:06:44;6.15;;;1.88;;
61569;SDS011;47462;59.172;17.196;2023-01-05T11:09:23;6.35;;;2.00;;
61569;SDS011;47462;59.172;17.196;2023-01-05T11:11:54;6.20;;;1.98;;
61569;SDS011;47462;59.172;17.196;2023-01-05T11:14:21;7.07;;;2.65;;
61569;SDS011;47462;59.172;17.196;2023-01-05T11:16:51;5.65;;;2.35;;
61569;SDS011;47462;59.172;17.196;2023-01-05T11:19:28;8.48;;;2.00;;
61569;SDS011;47462;59.172;17.196;2023-01-05T11:21:56;4.45;;;2.22;;
61569;SDS011;47462;59.172;17.196;2023-01-05T11:27:04;4.22;;;2.30;;
61569;SDS011;47462;59.172;17.196;2023-01-05T11:29:44;8.20;;;2.20;;
61569;SDS011;47462;59.172;17.196;2023-01-05T11:32:11;6.97;;;2.10;;
61569;SDS011;47462;59.172;17.196;2023-01-05T11:34:40;7.07;;;2.58;;
61569;SDS011;47462;59.172;17.196;2023-01-05T11:37:28;6.43;;;2.03;;
61569;SDS011;47462;59.172;17.196;2023-01-05T11:39:55;7.07;;;2.20;;
61569;SDS011;47462;59.172;17.196;2023-01-05T11:45:15;3.97;;;1.83;;
61569;SDS011;47462;59.172;17.196;2023-01-05T11:47:52;4.80;;;2.15;;
61569;SDS011;47462;59.172;17.196;2023-01-05T11:50:21;6.72;;;1.92;;
61569;SDS011;47462;59.172;17.196;2023-01-05T11:52:50;5.05;;;2.25;;
61569;SDS011;47462;59.172;17.196;2023-01-05T11:57:49;5.23;;;2.10;;
61569;SDS011;47462;59.172;17.196;2023-01-05T12:00:23;6.70;;;1.85;;
61569;SDS011;47462;59.172;17.196;2023-01-05T12:05:56;5.25;;;1.80;;
61569;SDS011;47462;59.172;17.196;2023-01-05T12:08:26;5.30;;;2.30;;
61569;SDS011;47462;59.172;17.196;2023-01-05T12:13:44;4.85;;;2.17;;
61569;SDS011;47462;59.172;17.196;2023-01-05T12:22:17;7.72;;;2.63;;
61569;SDS011;47462;59.172;17.196;2023-01-05T12:25:09;9.25;;;2.80;;
61569;SDS011;47462;59.172;17.196;2023-01-05T12:30:40;5.65;;;2.28;;
61569;SDS011;47462;59.172;17.196;2023-01-05T12:38:51;5.25;;;2.40;;
61569;SDS011;47462;59.172;17.196;2023-01-05T12:49:24;6.40;;;2.00;;
61569;SDS011;47462;59.172;17.196;2023-01-05T12:52:12;8.73;;;2.33;;
61569;SDS011;47462;59.172;17.196;2023-01-05T12:54:45;7.85;;;2.67;;
61569;SDS011;47462;59.172;17.196;2023-01-05T12:57:22;10.80;;;2.60;;
61569;SDS011;47462;59.172;17.196;2023-01-05T12:59:58;13.10;;;2.42;;
61569;SDS011;47462;59.172;17.196;2023-01-05T13:05:01;10.13;;;2.90;;
61569;SDS011;47462;59.172;17.196;2023-01-05T13:07:34;8.05;;;2.60;;
61569;SDS011;47462;59.172;17.196;2023-01-05T13:13:11;3.90;;;1.98;;
61569;SDS011;47462;59.172;17.196;2023-01-05T13:15:42;11.15;;;2.38;;
61569;SDS011;47462;59.172;17.196;2023-01-05T13:18:22;4.18;;;2.67;;
61569;SDS011;47462;59.172;17.196;2023-01-05T13:20:54;10.27;;;3.30;;
61569;SDS011;47462;59.172;17.196;2023-01-05T13:25:58;5.43;;;2.38;;
61569;SDS011;47462;59.172;17.196;2023-01-05T13:28:27;6.90;;;2.38;;
61569;SDS011;47462;59.172;17.196;2023-01-05T13:33:30;5.88;;;2.72;;
61569;SDS011;47462;59.172;17.196;2023-01-05T13:47:01;6.22;;;2.42;;
61569;SDS011;47462;59.172;17.196;2023-01-05T13:55:29;7.28;;;2.47;;
61569;SDS011;47462;59.172;17.196;2023-01-05T13:57:58;10.10;;;2.85;;
61569;SDS011;47462;59.172;17.196;2023-01-05T14:00:29;9.55;;;2.75;;
61569;SDS011;47462;59.172;17.196;2023-01-05T14:06:16;7.18;;;2.53;;
61569;SDS011;47462;59.172;17.196;2023-01-05T14:11:10;7.40;;;2.53;;
61569;SDS011;47462;59.172;17.196;2023-01-05T14:13:42;8.20;;;2.42;;
61569;SDS011;47462;59.172;17.196;2023-01-05T14:19:10;8.60;;;2.53;;
61569;SDS011;47462;59.172;17.196;2023-01-05T14:27:05;10.45;;;3.20;;
61569;SDS011;47462;59.172;17.196;2023-01-05T14:32:11;12.02;;;2.53;;
61569;SDS011;47462;59.172;17.196;2023-01-05T14:34:48;9.10;;;2.47;;
61569;SDS011;47462;59.172;17.196;2023-01-05T14:37:32;10.50;;;3.00;;
61569;SDS011;47462;59.172;17.196;2023-01-05T14:40:01;9.68;;;2.50;;
61569;SDS011;47462;59.172;17.196;2023-01-05T14:42:39;9.63;;;3.63;;
61569;SDS011;47462;59.172;17.196;2023-01-05T14:45:06;8.93;;;2.83;;
61569;SDS011;47462;59.172;17.196;2023-01-05T14:47:43;14.70;;;3.90;;
61569;SDS011;47462;59.172;17.196;2023-01-05T14:50:23;8.10;;;2.83;;
61569;SDS011;47462;59.172;17.196;2023-01-05T14:52:57;5.40;;;2.38;;
61569;SDS011;47462;59.172;17.196;2023-01-05T14:55:28;11.35;;;2.72;;
61569;SDS011;47462;59.172;17.196;2023-01-05T15:06:20;8.75;;;2.22;;
61569;SDS011;47462;59.172;17.196;2023-01-05T15:12:20;7.00;;;2.92;;
61569;SDS011;47462;59.172;17.196;2023-01-05T15:20:42;6.05;;;2.35;;
61569;SDS011;47462;59.172;17.196;2023-01-05T15:34:33;7.83;;;2.80;;
61569;SDS011;47462;59.172;17.196;2023-01-05T15:39:47;5.10;;;2.15;;
61569;SDS011;47462;59.172;17.196;2023-01-05T15:42:19;7.55;;;2.58;;
61569;SDS011;47462;59.172;17.196;2023-01-05T15:44:48;12.27;;;2.80;;
61569;SDS011;47462;59.172;17.196;2023-01-05T15:47:19;5.43;;;2.65;;
61569;SDS011;47462;59.172;17.196;2023-01-05T15:49:46;8.43;;;2.50;;
61569;SDS011;47462;59.172;17.196;2023-01-05T15:52:17;6.57;;;3.33;;
61569;SDS011;47462;59.172;17.196;2023-01-05T15:54:55;8.88;;;2.78;;
61569;SDS011;47462;59.172;17.196;2023-01-05T15:57:21;5.67;;;2.73;;
61569;SDS011;47462;59.172;17.196;2023-01-05T15:59:47;12.13;;;2.87;;
61569;SDS011;47462;59.172;17.196;2023-01-05T16:02:28;7.32;;;2.67;;
61569;SDS011;47462;59.172;17.196;2023-01-05T16:05:11;6.72;;;2.40;;
61569;SDS011;47462;59.172;17.196;2023-01-05T16:07:46;4.97;;;2.28;;
61569;SDS011;47462;59.172;17.196;2023-01-05T16:10:27;8.10;;;2.72;;
61569;SDS011;47462;59.172;17.196;2023-01-05T16:13:48;5.05;;;2.00;;
61569;SDS011;47462;59.172;17.196;2023-01-05T16:16:07;10.48;;;2.55;;
61569;SDS011;47462;59.172;17.196;2023-01-05T16:18:48;12.65;;;2.33;;
61569;SDS011;47462;59.172;17.196;2023-01-05T16:23:54;8.68;;;2.70;;
61569;SDS011;47462;59.172;17.196;2023-01-05T16:26:29;11.13;;;2.50;;
61569;SDS011;47462;59.172;17.196;2023-01-05T16:28:59;7.88;;;2.58;;
61569;SDS011;47462;59.172;17.196;2023-01-05T16:31:28;9.33;;;2.83;;
61569;SDS011;47462;59.172;17.196;2023-01-05T16:34:04;13.90;;;2.72;;
61569;SDS011;47462;59.172;17.196;2023-01-05T16:36:39;12.07;;;2.60;;
61569;SDS011;47462;59.172;17.196;2023-01-05T16:39:11;7.83;;;2.40;;
61569;SDS011;47462;59.172;17.196;2023-01-05T16:41:38;6.28;;;2.55;;
61569;SDS011;47462;59.172;17.196;2023-01-05T16:44:23;5.35;;;2.50;;
61569;SDS011;47462;59.172;17.196;2023-01-05T16:47:01;5.75;;;2.35;;
61569;SDS011;47462;59.172;17.196;2023-01-05T16:49:35;10.13;;;2.60;;
61569;SDS011;47462;59.172;17.196;2023-01-05T16:52:04;8.70;;;2.25;;
61569;SDS011;47462;59.172;17.196;2023-01-05T16:54:33;8.77;;;2.42;;
61569;SDS011;47462;59.172;17.196;2023-01-05T16:57:01;5.70;;;2.38;;
61569;SDS011;47462;59.172;17.196;2023-01-05T16:59:52;7.55;;;2.30;;
61569;SDS011;47462;59.172;17.196;2023-01-05T17:04:55;9.30;;;2.70;;
61569;SDS011;47462;59.172;17.196;2023-01-05T17:07:21;5.45;;;2.47;;
61569;SDS011;47462;59.172;17.196;2023-01-05T17:09:46;8.75;;;2.78;;
61569;SDS011;47462;59.172;17.196;2023-01-05T17:12:12;7.97;;;2.90;;
61569;SDS011;47462;59.172;17.196;2023-01-05T17:14:38;7.20;;;2.60;;
61569;SDS011;47462;59.172;17.196;2023-01-05T17:17:05;6.55;;;2.40;;
61569;SDS011;47462;59.172;17.196;2023-01-05T17:19:35;8.18;;;2.67;;
61569;SDS011;47462;59.172;17.196;2023-01-05T17:22:02;7.65;;;2.72;;
61569;SDS011;47462;59.172;17.196;2023-01-05T17:24:31;5.55;;;2.42;;
61569;SDS011;47462;59.172;17.196;2023-01-05T17:26:57;7.93;;;2.65;;
61569;SDS011;47462;59.172;17.196;2023-01-05T17:29:23;11.83;;;3.53;;
61569;SDS011;47462;59.172;17.196;2023-01-05T17:31:53;8.85;;;2.33;;
61569;SDS011;47462;59.172;17.196;2023-01-05T17:34:20;8.23;;;3.15;;
61569;SDS011;47462;59.172;17.196;2023-01-05T17:36:47;8.13;;;2.70;;
61569;SDS011;47462;59.172;17.196;2023-01-05T17:39:14;13.30;;;2.55;;